sensor_id;sensor_type;location;lat;lon;timestamp;P1;durP1;ratioP1;P2;durP2;ratioP2
18172;SDS011;9211;48.818;9.312;2022-09-29T00:00:36;7.57;;;2.90;;
18172;SDS011;9211;48.818;9.312;2022-09-29T00:03:03;5.53;;;3.00;;
18172;SDS011;9211;48.818;9.312;2022-09-29T00:05:31;5.15;;;2.97;;
18172;SDS011;9211;48.818;9.312;2022-09-29T00:07:58;7.10;;;3.20;;
18172;SDS011;9211;48.818;9.312;2022-09-29T00:10:25;6.13;;;2.90;;
18172;SDS011;9211;48.818;9.312;2022-09-29T00:12:53;6.45;;;3.20;;
18172;SDS011;9211;48.818;9.312;2022-09-29T00:15:20;7.40;;;3.05;;
18172;SDS011;9211;48.818;9.312;2022-09-29T00:17:47;8.63;;;3.00;;
18172;SDS011;9211;48.818;9.312;2022-09-29T00:20:14;5.57;;;2.90;;
18172;SDS011;9211;48.818;9.312;2022-09-29T00:22:41;5.13;;;2.60;;
18172;SDS011;9211;48.818;9.312;2022-09-29T00:25:08;5.47;;;2.70;;
18172;SDS011;9211;48.818;9.312;2022-09-29T00:27:35;5.13;;;2.60;;
18172;SDS011;9211;48.818;9.312;2022-09-29T00:30:04;5.43;;;2.78;;
18172;SDS011;9211;48.818;9.312;2022-09-29T00:32:32;6.07;;;2.92;;
18172;SDS011;9211;48.818;9.312;2022-09-29T00:34:59;6.47;;;2.60;;
18172;SDS011;9211;48.818;9.312;2022-09-29T00:37:26;7.35;;;3.03;;
18172;SDS011;9211;48.818;9.312;2022-09-29T00:39:53;5.22;;;2.70;;
18172;SDS011;9211;48.818;9.312;2022-09-29T00:42:20;6.00;;;2.83;;
18172;SDS011;9211;48.818;9.312;2022-09-29T00:47:49;6.25;;;3.00;;
18172;SDS011;9211;48.818;9.312;2022-09-29T00:50:30;5.05;;;2.88;;
18172;SDS011;9211;48.818;9.312;2022-09-29T00:53:06;6.45;;;3.10;;
18172;SDS011;9211;48.818;9.312;2022-09-29T00:55:37;7.03;;;3.17;;
18172;SDS011;9211;48.818;9.312;2022-09-29T00:58:08;6.15;;;3.20;;
18172;SDS011;9211;48.818;9.312;2022-09-29T01:00:44;6.55;;;3.33;;
18172;SDS011;9211;48.818;9.312;2022-09-29T01:03:13;5.60;;;3.33;;
18172;SDS011;9211;48.818;9.312;2022-09-29T01:05:44;7.23;;;3.60;;
18172;SDS011;9211;48.818;9.312;2022-09-29T01:08:15;5.47;;;3.20;;
18172;SDS011;9211;48.818;9.312;2022-09-29T01:10:48;8.23;;;3.50;;
18172;SDS011;9211;48.818;9.312;2022-09-29T01:13:17;6.35;;;3.30;;
18172;SDS011;9211;48.818;9.312;2022-09-29T01:15:45;6.35;;;3.50;;
18172;SDS011;9211;48.818;9.312;2022-09-29T01:18:13;6.18;;;3.30;;
18172;SDS011;9211;48.818;9.312;2022-09-29T01:20:42;8.10;;;3.70;;
18172;SDS011;9211;48.818;9.312;2022-09-29T01:29:12;6.18;;;3.45;;
18172;SDS011;9211;48.818;9.312;2022-09-29T01:32:02;7.03;;;3.58;;
18172;SDS011;9211;48.818;9.312;2022-09-29T01:34:38;5.30;;;3.45;;
18172;SDS011;9211;48.818;9.312;2022-09-29T01:37:13;8.53;;;3.70;;
18172;SDS011;9211;48.818;9.312;2022-09-29T01:39:47;8.18;;;3.97;;
18172;SDS011;9211;48.818;9.312;2022-09-29T01:42:19;6.88;;;3.90;;
18172;SDS011;9211;48.818;9.312;2022-09-29T01:44:52;7.40;;;3.90;;
18172;SDS011;9211;48.818;9.312;2022-09-29T01:47:24;6.28;;;3.83;;
18172;SDS011;9211;48.818;9.312;2022-09-29T01:49:56;8.10;;;3.85;;
18172;SDS011;9211;48.818;9.312;2022-09-29T01:52:26;7.70;;;3.60;;
18172;SDS011;9211;48.818;9.312;2022-09-29T01:54:58;8.27;;;4.00;;
18172;SDS011;9211;48.818;9.312;2022-09-29T01:57:28;7.75;;;3.80;;
18172;SDS011;9211;48.818;9.312;2022-09-29T02:00:00;9.88;;;3.95;;
18172;SDS011;9211;48.818;9.312;2022-09-29T02:02:47;8.90;;;3.90;;
18172;SDS011;9211;48.818;9.312;2022-09-29T02:05:18;6.57;;;3.80;;
18172;SDS011;9211;48.818;9.312;2022-09-29T02:07:51;9.02;;;3.78;;
18172;SDS011;9211;48.818;9.312;2022-09-29T02:10:22;6.93;;;4.00;;
18172;SDS011;9211;48.818;9.312;2022-09-29T02:12:52;7.53;;;4.07;;
18172;SDS011;9211;48.818;9.312;2022-09-29T02:15:22;8.45;;;4.07;;
18172;SDS011;9211;48.818;9.312;2022-09-29T02:17:53;9.63;;;3.95;;
18172;SDS011;9211;48.818;9.312;2022-09-29T02:20:23;9.45;;;3.90;;
18172;SDS011;9211;48.818;9.312;2022-09-29T02:22:50;8.43;;;4.13;;
18172;SDS011;9211;48.818;9.312;2022-09-29T02:25:17;8.20;;;3.80;;
18172;SDS011;9211;48.818;9.312;2022-09-29T02:27:45;8.13;;;4.00;;
18172;SDS011;9211;48.818;9.312;2022-09-29T02:30:15;8.95;;;3.50;;
18172;SDS011;9211;48.818;9.312;2022-09-29T02:32:42;6.78;;;3.55;;
18172;SDS011;9211;48.818;9.312;2022-09-29T02:35:12;8.47;;;3.67;;
18172;SDS011;9211;48.818;9.312;2022-09-29T02:37:48;6.80;;;3.58;;
18172;SDS011;9211;48.818;9.312;2022-09-29T02:40:25;7.68;;;3.80;;
18172;SDS011;9211;48.818;9.312;2022-09-29T02:45:54;7.65;;;3.60;;
18172;SDS011;9211;48.818;9.312;2022-09-29T02:48:42;6.93;;;3.72;;
18172;SDS011;9211;48.818;9.312;2022-09-29T02:51:23;7.28;;;3.72;;
18172;SDS011;9211;48.818;9.312;2022-09-29T02:54:10;6.57;;;3.90;;
18172;SDS011;9211;48.818;9.312;2022-09-29T02:56:46;8.52;;;3.90;;
18172;SDS011;9211;48.818;9.312;2022-09-29T02:59:20;7.65;;;3.80;;
18172;SDS011;9211;48.818;9.312;2022-09-29T03:01:52;7.53;;;4.13;;
18172;SDS011;9211;48.818;9.312;2022-09-29T03:04:21;7.35;;;3.60;;
18172;SDS011;9211;48.818;9.312;2022-09-29T03:06:51;7.03;;;3.70;;
18172;SDS011;9211;48.818;9.312;2022-09-29T03:09:19;6.27;;;3.60;;
18172;SDS011;9211;48.818;9.312;2022-09-29T03:11:46;5.30;;;3.50;;
18172;SDS011;9211;48.818;9.312;2022-09-29T03:14:13;7.65;;;3.53;;
18172;SDS011;9211;48.818;9.312;2022-09-29T03:16:40;7.40;;;3.63;;
18172;SDS011;9211;48.818;9.312;2022-09-29T03:19:07;6.47;;;3.38;;
18172;SDS011;9211;48.818;9.312;2022-09-29T03:21:34;5.78;;;3.33;;
18172;SDS011;9211;48.818;9.312;2022-09-29T03:24:03;7.30;;;3.55;;
18172;SDS011;9211;48.818;9.312;2022-09-29T03:26:30;7.55;;;3.65;;
18172;SDS011;9211;48.818;9.312;2022-09-29T03:28:57;6.57;;;3.70;;
18172;SDS011;9211;48.818;9.312;2022-09-29T03:31:24;9.43;;;3.85;;
18172;SDS011;9211;48.818;9.312;2022-09-29T03:33:51;8.55;;;3.72;;
18172;SDS011;9211;48.818;9.312;2022-09-29T03:36:18;5.43;;;3.38;;
18172;SDS011;9211;48.818;9.312;2022-09-29T03:38:45;6.13;;;3.53;;
18172;SDS011;9211;48.818;9.312;2022-09-29T03:41:13;6.78;;;3.65;;
18172;SDS011;9211;48.818;9.312;2022-09-29T03:43:40;7.75;;;3.90;;
18172;SDS011;9211;48.818;9.312;2022-09-29T03:46:07;6.00;;;3.58;;
18172;SDS011;9211;48.818;9.312;2022-09-29T03:48:34;9.43;;;3.75;;
18172;SDS011;9211;48.818;9.312;2022-09-29T03:51:01;8.25;;;3.60;;
18172;SDS011;9211;48.818;9.312;2022-09-29T03:53:29;7.30;;;3.70;;
18172;SDS011;9211;48.818;9.312;2022-09-29T03:55:56;6.70;;;3.90;;
18172;SDS011;9211;48.818;9.312;2022-09-29T03:58:24;5.55;;;3.40;;
18172;SDS011;9211;48.818;9.312;2022-09-29T04:00:51;7.10;;;3.77;;
18172;SDS011;9211;48.818;9.312;2022-09-29T04:03:18;6.22;;;3.78;;
18172;SDS011;9211;48.818;9.312;2022-09-29T04:05:46;6.22;;;3.40;;
18172;SDS011;9211;48.818;9.312;2022-09-29T04:08:13;7.22;;;3.90;;
18172;SDS011;9211;48.818;9.312;2022-09-29T04:10:41;6.43;;;3.75;;
18172;SDS011;9211;48.818;9.312;2022-09-29T04:13:08;6.70;;;3.30;;
18172;SDS011;9211;48.818;9.312;2022-09-29T04:15:36;5.95;;;3.80;;
18172;SDS011;9211;48.818;9.312;2022-09-29T04:18:03;8.77;;;3.70;;
18172;SDS011;9211;48.818;9.312;2022-09-29T04:20:31;6.75;;;3.60;;
18172;SDS011;9211;48.818;9.312;2022-09-29T04:22:58;9.40;;;3.80;;
18172;SDS011;9211;48.818;9.312;2022-09-29T04:25:25;7.45;;;3.50;;
18172;SDS011;9211;48.818;9.312;2022-09-29T04:27:53;7.38;;;3.75;;
18172;SDS011;9211;48.818;9.312;2022-09-29T04:30:20;9.00;;;3.70;;
18172;SDS011;9211;48.818;9.312;2022-09-29T04:32:48;8.33;;;3.80;;
18172;SDS011;9211;48.818;9.312;2022-09-29T04:35:15;6.57;;;3.58;;
18172;SDS011;9211;48.818;9.312;2022-09-29T04:37:42;8.43;;;4.03;;
18172;SDS011;9211;48.818;9.312;2022-09-29T04:40:09;7.53;;;3.78;;
18172;SDS011;9211;48.818;9.312;2022-09-29T04:42:36;7.53;;;3.90;;
18172;SDS011;9211;48.818;9.312;2022-09-29T04:45:04;7.85;;;4.20;;
18172;SDS011;9211;48.818;9.312;2022-09-29T04:47:31;9.23;;;4.00;;
18172;SDS011;9211;48.818;9.312;2022-09-29T04:50:00;7.68;;;4.07;;
18172;SDS011;9211;48.818;9.312;2022-09-29T04:52:27;7.72;;;4.13;;
18172;SDS011;9211;48.818;9.312;2022-09-29T04:54:54;8.00;;;4.07;;
18172;SDS011;9211;48.818;9.312;2022-09-29T04:57:20;6.72;;;4.03;;
18172;SDS011;9211;48.818;9.312;2022-09-29T04:59:47;9.40;;;4.10;;
18172;SDS011;9211;48.818;9.312;2022-09-29T05:02:16;7.63;;;4.07;;
18172;SDS011;9211;48.818;9.312;2022-09-29T05:04:43;7.40;;;4.00;;
18172;SDS011;9211;48.818;9.312;2022-09-29T05:07:13;7.45;;;3.90;;
18172;SDS011;9211;48.818;9.312;2022-09-29T05:09:40;8.55;;;3.92;;
18172;SDS011;9211;48.818;9.312;2022-09-29T05:12:07;9.63;;;3.83;;
18172;SDS011;9211;48.818;9.312;2022-09-29T05:14:34;7.43;;;4.05;;
18172;SDS011;9211;48.818;9.312;2022-09-29T05:17:01;8.98;;;4.28;;
18172;SDS011;9211;48.818;9.312;2022-09-29T05:19:28;8.65;;;4.13;;
18172;SDS011;9211;48.818;9.312;2022-09-29T05:21:56;8.55;;;4.00;;
18172;SDS011;9211;48.818;9.312;2022-09-29T05:24:24;7.50;;;4.10;;
18172;SDS011;9211;48.818;9.312;2022-09-29T05:26:52;7.45;;;4.20;;
18172;SDS011;9211;48.818;9.312;2022-09-29T05:29:19;9.23;;;4.30;;
18172;SDS011;9211;48.818;9.312;2022-09-29T05:31:47;8.82;;;4.20;;
18172;SDS011;9211;48.818;9.312;2022-09-29T05:34:14;9.25;;;4.40;;
18172;SDS011;9211;48.818;9.312;2022-09-29T05:36:41;8.25;;;4.53;;
18172;SDS011;9211;48.818;9.312;2022-09-29T05:39:08;9.07;;;4.70;;
18172;SDS011;9211;48.818;9.312;2022-09-29T05:41:37;10.65;;;4.53;;
18172;SDS011;9211;48.818;9.312;2022-09-29T05:44:04;9.07;;;4.72;;
18172;SDS011;9211;48.818;9.312;2022-09-29T05:46:31;8.80;;;5.00;;
18172;SDS011;9211;48.818;9.312;2022-09-29T05:48:58;11.65;;;4.80;;
18172;SDS011;9211;48.818;9.312;2022-09-29T05:51:25;9.40;;;4.78;;
18172;SDS011;9211;48.818;9.312;2022-09-29T05:53:52;9.45;;;4.45;;
18172;SDS011;9211;48.818;9.312;2022-09-29T05:56:21;9.45;;;4.38;;
18172;SDS011;9211;48.818;9.312;2022-09-29T05:58:50;7.38;;;4.10;;
18172;SDS011;9211;48.818;9.312;2022-09-29T06:01:19;6.93;;;3.63;;
18172;SDS011;9211;48.818;9.312;2022-09-29T06:03:47;8.87;;;3.77;;
18172;SDS011;9211;48.818;9.312;2022-09-29T06:06:16;8.10;;;3.97;;
18172;SDS011;9211;48.818;9.312;2022-09-29T06:08:45;8.18;;;4.10;;
18172;SDS011;9211;48.818;9.312;2022-09-29T06:11:13;7.50;;;4.05;;
18172;SDS011;9211;48.818;9.312;2022-09-29T06:13:41;10.00;;;4.20;;
18172;SDS011;9211;48.818;9.312;2022-09-29T06:16:11;9.52;;;4.00;;
18172;SDS011;9211;48.818;9.312;2022-09-29T06:18:39;7.97;;;3.80;;
18172;SDS011;9211;48.818;9.312;2022-09-29T06:21:07;7.45;;;4.22;;
18172;SDS011;9211;48.818;9.312;2022-09-29T06:23:36;7.93;;;4.18;;
18172;SDS011;9211;48.818;9.312;2022-09-29T06:26:03;8.25;;;4.35;;
18172;SDS011;9211;48.818;9.312;2022-09-29T06:28:31;7.22;;;4.30;;
18172;SDS011;9211;48.818;9.312;2022-09-29T06:30:59;6.88;;;3.78;;
18172;SDS011;9211;48.818;9.312;2022-09-29T06:33:29;8.38;;;4.05;;
18172;SDS011;9211;48.818;9.312;2022-09-29T06:35:57;9.77;;;4.18;;
18172;SDS011;9211;48.818;9.312;2022-09-29T06:38:43;11.63;;;4.05;;
18172;SDS011;9211;48.818;9.312;2022-09-29T06:41:10;11.38;;;4.18;;
18172;SDS011;9211;48.818;9.312;2022-09-29T06:43:37;11.68;;;4.18;;
18172;SDS011;9211;48.818;9.312;2022-09-29T06:46:04;10.88;;;3.97;;
18172;SDS011;9211;48.818;9.312;2022-09-29T06:48:32;9.68;;;3.70;;
18172;SDS011;9211;48.818;9.312;2022-09-29T06:50:59;11.13;;;4.10;;
18172;SDS011;9211;48.818;9.312;2022-09-29T06:53:26;9.45;;;3.70;;
18172;SDS011;9211;48.818;9.312;2022-09-29T06:55:53;12.57;;;4.03;;
18172;SDS011;9211;48.818;9.312;2022-09-29T06:58:21;6.68;;;3.40;;
18172;SDS011;9211;48.818;9.312;2022-09-29T07:00:48;8.15;;;3.58;;
18172;SDS011;9211;48.818;9.312;2022-09-29T07:03:15;9.05;;;3.70;;
18172;SDS011;9211;48.818;9.312;2022-09-29T07:05:43;8.25;;;3.60;;
18172;SDS011;9211;48.818;9.312;2022-09-29T07:08:10;4.57;;;3.08;;
18172;SDS011;9211;48.818;9.312;2022-09-29T07:10:37;7.43;;;3.20;;
18172;SDS011;9211;48.818;9.312;2022-09-29T07:13:05;6.95;;;3.40;;
18172;SDS011;9211;48.818;9.312;2022-09-29T07:15:33;7.07;;;3.60;;
18172;SDS011;9211;48.818;9.312;2022-09-29T07:18:02;7.32;;;3.53;;
18172;SDS011;9211;48.818;9.312;2022-09-29T07:20:30;7.25;;;3.40;;
18172;SDS011;9211;48.818;9.312;2022-09-29T07:22:59;7.60;;;3.45;;
18172;SDS011;9211;48.818;9.312;2022-09-29T07:25:26;6.60;;;3.50;;
18172;SDS011;9211;48.818;9.312;2022-09-29T07:27:53;7.25;;;3.63;;
18172;SDS011;9211;48.818;9.312;2022-09-29T07:30:20;6.50;;;3.17;;
18172;SDS011;9211;48.818;9.312;2022-09-29T07:32:47;5.85;;;3.17;;
18172;SDS011;9211;48.818;9.312;2022-09-29T07:35:14;8.50;;;3.80;;
18172;SDS011;9211;48.818;9.312;2022-09-29T07:37:41;6.38;;;3.40;;
18172;SDS011;9211;48.818;9.312;2022-09-29T07:40:18;6.72;;;3.40;;
18172;SDS011;9211;48.818;9.312;2022-09-29T07:42:45;6.15;;;3.33;;
18172;SDS011;9211;48.818;9.312;2022-09-29T07:45:12;6.28;;;3.58;;
18172;SDS011;9211;48.818;9.312;2022-09-29T07:47:39;6.30;;;3.28;;
18172;SDS011;9211;48.818;9.312;2022-09-29T07:50:06;7.93;;;2.75;;
18172;SDS011;9211;48.818;9.312;2022-09-29T07:52:33;5.30;;;3.20;;
18172;SDS011;9211;48.818;9.312;2022-09-29T07:55:00;4.93;;;3.00;;
18172;SDS011;9211;48.818;9.312;2022-09-29T07:57:29;6.97;;;3.20;;
18172;SDS011;9211;48.818;9.312;2022-09-29T07:59:56;6.47;;;3.40;;
18172;SDS011;9211;48.818;9.312;2022-09-29T08:02:23;6.13;;;3.50;;
18172;SDS011;9211;48.818;9.312;2022-09-29T08:04:51;6.57;;;3.42;;
18172;SDS011;9211;48.818;9.312;2022-09-29T08:07:18;6.70;;;3.30;;
18172;SDS011;9211;48.818;9.312;2022-09-29T08:09:45;7.82;;;3.58;;
18172;SDS011;9211;48.818;9.312;2022-09-29T08:12:13;11.57;;;3.80;;
18172;SDS011;9211;48.818;9.312;2022-09-29T08:14:41;7.88;;;3.67;;
18172;SDS011;9211;48.818;9.312;2022-09-29T08:17:08;9.98;;;3.55;;
18172;SDS011;9211;48.818;9.312;2022-09-29T08:19:35;7.03;;;3.63;;
18172;SDS011;9211;48.818;9.312;2022-09-29T08:22:02;6.97;;;3.97;;
18172;SDS011;9211;48.818;9.312;2022-09-29T08:24:29;8.93;;;3.60;;
18172;SDS011;9211;48.818;9.312;2022-09-29T08:26:56;8.57;;;4.10;;
18172;SDS011;9211;48.818;9.312;2022-09-29T08:29:23;8.43;;;3.75;;
18172;SDS011;9211;48.818;9.312;2022-09-29T08:31:51;6.30;;;3.58;;
18172;SDS011;9211;48.818;9.312;2022-09-29T08:34:20;7.07;;;3.88;;
18172;SDS011;9211;48.818;9.312;2022-09-29T08:36:48;7.32;;;4.25;;
18172;SDS011;9211;48.818;9.312;2022-09-29T08:39:16;7.75;;;3.88;;
18172;SDS011;9211;48.818;9.312;2022-09-29T08:41:50;6.63;;;3.63;;
18172;SDS011;9211;48.818;9.312;2022-09-29T08:44:21;7.90;;;3.72;;
18172;SDS011;9211;48.818;9.312;2022-09-29T08:46:56;7.35;;;3.60;;
18172;SDS011;9211;48.818;9.312;2022-09-29T08:49:26;6.55;;;3.45;;
18172;SDS011;9211;48.818;9.312;2022-09-29T08:52:03;9.97;;;3.53;;
18172;SDS011;9211;48.818;9.312;2022-09-29T08:54:35;8.15;;;3.90;;
18172;SDS011;9211;48.818;9.312;2022-09-29T08:57:05;10.07;;;4.10;;
18172;SDS011;9211;48.818;9.312;2022-09-29T08:59:39;7.22;;;3.58;;
18172;SDS011;9211;48.818;9.312;2022-09-29T09:02:16;8.05;;;3.08;;
18172;SDS011;9211;48.818;9.312;2022-09-29T09:05:16;5.72;;;3.20;;
18172;SDS011;9211;48.818;9.312;2022-09-29T09:08:02;6.05;;;3.10;;
18172;SDS011;9211;48.818;9.312;2022-09-29T09:10:38;5.65;;;3.05;;
18172;SDS011;9211;48.818;9.312;2022-09-29T09:13:32;6.63;;;2.78;;
18172;SDS011;9211;48.818;9.312;2022-09-29T09:16:17;5.47;;;2.87;;
18172;SDS011;9211;48.818;9.312;2022-09-29T09:19:03;6.95;;;3.20;;
18172;SDS011;9211;48.818;9.312;2022-09-29T09:22:00;5.93;;;2.80;;
18172;SDS011;9211;48.818;9.312;2022-09-29T09:24:40;5.75;;;2.60;;
18172;SDS011;9211;48.818;9.312;2022-09-29T09:27:15;5.60;;;3.00;;
18172;SDS011;9211;48.818;9.312;2022-09-29T09:29:47;5.95;;;2.67;;
18172;SDS011;9211;48.818;9.312;2022-09-29T09:32:16;4.95;;;2.70;;
18172;SDS011;9211;48.818;9.312;2022-09-29T09:34:50;3.42;;;2.38;;
18172;SDS011;9211;48.818;9.312;2022-09-29T09:37:24;3.70;;;2.37;;
18172;SDS011;9211;48.818;9.312;2022-09-29T09:39:55;5.65;;;2.70;;
18172;SDS011;9211;48.818;9.312;2022-09-29T09:42:26;5.05;;;2.70;;
18172;SDS011;9211;48.818;9.312;2022-09-29T09:44:56;4.65;;;2.30;;
18172;SDS011;9211;48.818;9.312;2022-09-29T09:47:26;3.75;;;2.17;;
18172;SDS011;9211;48.818;9.312;2022-09-29T09:49:58;4.22;;;2.15;;
18172;SDS011;9211;48.818;9.312;2022-09-29T09:52:30;3.95;;;2.00;;
18172;SDS011;9211;48.818;9.312;2022-09-29T09:55:04;2.85;;;1.90;;
18172;SDS011;9211;48.818;9.312;2022-09-29T09:57:41;4.75;;;2.63;;
18172;SDS011;9211;48.818;9.312;2022-09-29T10:00:20;4.60;;;2.20;;
18172;SDS011;9211;48.818;9.312;2022-09-29T10:02:49;5.30;;;2.80;;
18172;SDS011;9211;48.818;9.312;2022-09-29T10:05:21;5.82;;;3.08;;
18172;SDS011;9211;48.818;9.312;2022-09-29T10:07:50;5.68;;;2.95;;
18172;SDS011;9211;48.818;9.312;2022-09-29T10:10:19;5.13;;;2.67;;
18172;SDS011;9211;48.818;9.312;2022-09-29T10:12:48;4.00;;;2.42;;
18172;SDS011;9211;48.818;9.312;2022-09-29T10:15:22;5.03;;;2.50;;
18172;SDS011;9211;48.818;9.312;2022-09-29T10:17:57;4.88;;;2.67;;
18172;SDS011;9211;48.818;9.312;2022-09-29T10:20:35;4.95;;;2.80;;
18172;SDS011;9211;48.818;9.312;2022-09-29T10:23:21;3.40;;;2.28;;
18172;SDS011;9211;48.818;9.312;2022-09-29T10:25:51;6.23;;;2.20;;
18172;SDS011;9211;48.818;9.312;2022-09-29T10:28:21;8.55;;;4.22;;
18172;SDS011;9211;48.818;9.312;2022-09-29T10:30:49;6.90;;;3.90;;
18172;SDS011;9211;48.818;9.312;2022-09-29T10:33:16;6.03;;;3.28;;
18172;SDS011;9211;48.818;9.312;2022-09-29T10:35:47;4.50;;;2.20;;
18172;SDS011;9211;48.818;9.312;2022-09-29T10:38:27;4.67;;;2.63;;
18172;SDS011;9211;48.818;9.312;2022-09-29T10:40:57;3.47;;;2.08;;
18172;SDS011;9211;48.818;9.312;2022-09-29T10:43:26;4.70;;;2.20;;
18172;SDS011;9211;48.818;9.312;2022-09-29T10:46:00;3.85;;;1.90;;
18172;SDS011;9211;48.818;9.312;2022-09-29T10:48:27;4.90;;;2.30;;
18172;SDS011;9211;48.818;9.312;2022-09-29T10:50:56;3.75;;;2.10;;
18172;SDS011;9211;48.818;9.312;2022-09-29T10:53:28;4.10;;;2.15;;
18172;SDS011;9211;48.818;9.312;2022-09-29T10:56:04;4.55;;;2.08;;
18172;SDS011;9211;48.818;9.312;2022-09-29T10:58:40;5.28;;;1.80;;
18172;SDS011;9211;48.818;9.312;2022-09-29T11:01:10;4.07;;;1.73;;
18172;SDS011;9211;48.818;9.312;2022-09-29T11:03:39;4.18;;;1.60;;
18172;SDS011;9211;48.818;9.312;2022-09-29T11:06:13;5.18;;;1.70;;
18172;SDS011;9211;48.818;9.312;2022-09-29T11:08:57;4.18;;;1.67;;
18172;SDS011;9211;48.818;9.312;2022-09-29T11:11:26;5.28;;;2.05;;
18172;SDS011;9211;48.818;9.312;2022-09-29T11:13:55;4.97;;;2.05;;
18172;SDS011;9211;48.818;9.312;2022-09-29T11:16:26;6.38;;;2.05;;
18172;SDS011;9211;48.818;9.312;2022-09-29T11:18:55;3.83;;;1.63;;
18172;SDS011;9211;48.818;9.312;2022-09-29T11:24:49;3.10;;;1.70;;
18172;SDS011;9211;48.818;9.312;2022-09-29T11:27:39;3.85;;;1.60;;
18172;SDS011;9211;48.818;9.312;2022-09-29T11:30:16;4.88;;;1.80;;
18172;SDS011;9211;48.818;9.312;2022-09-29T11:32:53;2.70;;;1.38;;
18172;SDS011;9211;48.818;9.312;2022-09-29T11:35:35;2.42;;;1.30;;
18172;SDS011;9211;48.818;9.312;2022-09-29T11:38:16;3.28;;;1.30;;
18172;SDS011;9211;48.818;9.312;2022-09-29T11:40:58;3.72;;;1.70;;
18172;SDS011;9211;48.818;9.312;2022-09-29T11:43:34;3.13;;;1.60;;
18172;SDS011;9211;48.818;9.312;2022-09-29T11:46:13;5.00;;;1.70;;
18172;SDS011;9211;48.818;9.312;2022-09-29T11:48:59;3.60;;;1.42;;
18172;SDS011;9211;48.818;9.312;2022-09-29T11:51:42;4.00;;;1.52;;
18172;SDS011;9211;48.818;9.312;2022-09-29T11:54:40;4.70;;;1.50;;
18172;SDS011;9211;48.818;9.312;2022-09-29T11:57:27;3.85;;;1.65;;
18172;SDS011;9211;48.818;9.312;2022-09-29T12:00:07;3.55;;;1.55;;
18172;SDS011;9211;48.818;9.312;2022-09-29T12:02:51;3.75;;;1.30;;
18172;SDS011;9211;48.818;9.312;2022-09-29T12:05:37;2.00;;;1.20;;
18172;SDS011;9211;48.818;9.312;2022-09-29T12:08:21;2.92;;;1.27;;
18172;SDS011;9211;48.818;9.312;2022-09-29T12:11:02;4.18;;;1.33;;
18172;SDS011;9211;48.818;9.312;2022-09-29T12:13:37;2.58;;;1.58;;
18172;SDS011;9211;48.818;9.312;2022-09-29T12:16:11;2.78;;;1.30;;
18172;SDS011;9211;48.818;9.312;2022-09-29T12:18:41;1.95;;;1.10;;
18172;SDS011;9211;48.818;9.312;2022-09-29T12:21:14;5.90;;;1.30;;
18172;SDS011;9211;48.818;9.312;2022-09-29T12:23:43;3.08;;;1.30;;
18172;SDS011;9211;48.818;9.312;2022-09-29T12:26:12;2.38;;;1.08;;
18172;SDS011;9211;48.818;9.312;2022-09-29T12:28:46;4.60;;;1.20;;
18172;SDS011;9211;48.818;9.312;2022-09-29T12:31:19;3.33;;;1.45;;
18172;SDS011;9211;48.818;9.312;2022-09-29T12:33:51;2.85;;;1.00;;
18172;SDS011;9211;48.818;9.312;2022-09-29T12:36:26;2.20;;;0.90;;
18172;SDS011;9211;48.818;9.312;2022-09-29T12:39:31;4.43;;;1.30;;
18172;SDS011;9211;48.818;9.312;2022-09-29T12:42:20;2.42;;;1.10;;
18172;SDS011;9211;48.818;9.312;2022-09-29T12:44:56;2.57;;;1.30;;
18172;SDS011;9211;48.818;9.312;2022-09-29T12:47:37;3.80;;;1.20;;
18172;SDS011;9211;48.818;9.312;2022-09-29T12:50:13;3.50;;;1.30;;
18172;SDS011;9211;48.818;9.312;2022-09-29T12:52:45;4.03;;;1.23;;
18172;SDS011;9211;48.818;9.312;2022-09-29T12:55:22;2.75;;;1.10;;
18172;SDS011;9211;48.818;9.312;2022-09-29T12:57:55;2.90;;;1.10;;
18172;SDS011;9211;48.818;9.312;2022-09-29T13:00:28;4.05;;;1.30;;
18172;SDS011;9211;48.818;9.312;2022-09-29T13:06:02;3.60;;;1.00;;
18172;SDS011;9211;48.818;9.312;2022-09-29T13:12:03;2.22;;;1.00;;
18172;SDS011;9211;48.818;9.312;2022-09-29T13:14:52;2.78;;;1.10;;
18172;SDS011;9211;48.818;9.312;2022-09-29T13:17:34;2.78;;;1.00;;
18172;SDS011;9211;48.818;9.312;2022-09-29T13:20:17;3.97;;;1.05;;
18172;SDS011;9211;48.818;9.312;2022-09-29T13:23:04;3.00;;;1.00;;
18172;SDS011;9211;48.818;9.312;2022-09-29T13:26:05;2.40;;;1.08;;
18172;SDS011;9211;48.818;9.312;2022-09-29T13:28:45;1.25;;;0.80;;
18172;SDS011;9211;48.818;9.312;2022-09-29T13:31:15;2.58;;;1.15;;
18172;SDS011;9211;48.818;9.312;2022-09-29T13:33:47;3.72;;;1.17;;
18172;SDS011;9211;48.818;9.312;2022-09-29T13:36:22;2.30;;;1.00;;
18172;SDS011;9211;48.818;9.312;2022-09-29T13:38:52;1.85;;;1.00;;
18172;SDS011;9211;48.818;9.312;2022-09-29T13:41:32;4.40;;;1.20;;
18172;SDS011;9211;48.818;9.312;2022-09-29T13:44:02;3.78;;;1.10;;
18172;SDS011;9211;48.818;9.312;2022-09-29T13:46:46;2.08;;;1.10;;
18172;SDS011;9211;48.818;9.312;2022-09-29T13:49:21;1.67;;;1.00;;
18172;SDS011;9211;48.818;9.312;2022-09-29T13:51:53;4.68;;;1.35;;
18172;SDS011;9211;48.818;9.312;2022-09-29T13:54:28;3.67;;;1.38;;
18172;SDS011;9211;48.818;9.312;2022-09-29T14:02:43;2.93;;;1.50;;
18172;SDS011;9211;48.818;9.312;2022-09-29T14:05:37;3.08;;;1.23;;
18172;SDS011;9211;48.818;9.312;2022-09-29T14:08:14;4.60;;;1.48;;
18172;SDS011;9211;48.818;9.312;2022-09-29T14:10:48;2.83;;;1.30;;
18172;SDS011;9211;48.818;9.312;2022-09-29T14:13:20;2.90;;;1.40;;
18172;SDS011;9211;48.818;9.312;2022-09-29T14:15:59;3.47;;;1.50;;
18172;SDS011;9211;48.818;9.312;2022-09-29T14:18:37;4.70;;;2.10;;
18172;SDS011;9211;48.818;9.312;2022-09-29T14:21:10;3.95;;;1.50;;
18172;SDS011;9211;48.818;9.312;2022-09-29T14:23:49;3.92;;;1.40;;
18172;SDS011;9211;48.818;9.312;2022-09-29T14:29:10;2.90;;;1.30;;
18172;SDS011;9211;48.818;9.312;2022-09-29T14:31:43;2.58;;;1.27;;
18172;SDS011;9211;48.818;9.312;2022-09-29T14:34:14;2.83;;;1.30;;
18172;SDS011;9211;48.818;9.312;2022-09-29T14:36:44;4.38;;;1.52;;
18172;SDS011;9211;48.818;9.312;2022-09-29T14:39:13;5.55;;;1.58;;
18172;SDS011;9211;48.818;9.312;2022-09-29T14:41:41;3.63;;;1.50;;
18172;SDS011;9211;48.818;9.312;2022-09-29T14:44:10;3.13;;;1.40;;
18172;SDS011;9211;48.818;9.312;2022-09-29T14:46:54;2.90;;;1.40;;
18172;SDS011;9211;48.818;9.312;2022-09-29T14:53:12;4.72;;;1.60;;
18172;SDS011;9211;48.818;9.312;2022-09-29T14:55:52;3.65;;;1.27;;
18172;SDS011;9211;48.818;9.312;2022-09-29T14:58:32;2.47;;;1.10;;
18172;SDS011;9211;48.818;9.312;2022-09-29T15:01:24;5.60;;;1.45;;
18172;SDS011;9211;48.818;9.312;2022-09-29T15:03:53;4.00;;;1.20;;
18172;SDS011;9211;48.818;9.312;2022-09-29T15:06:22;4.88;;;1.30;;
18172;SDS011;9211;48.818;9.312;2022-09-29T15:08:54;3.30;;;1.30;;
18172;SDS011;9211;48.818;9.312;2022-09-29T15:11:28;3.85;;;1.30;;
18172;SDS011;9211;48.818;9.312;2022-09-29T15:13:58;3.08;;;1.30;;
18172;SDS011;9211;48.818;9.312;2022-09-29T15:16:29;3.47;;;1.30;;
18172;SDS011;9211;48.818;9.312;2022-09-29T15:19:14;3.75;;;1.08;;
18172;SDS011;9211;48.818;9.312;2022-09-29T15:21:54;3.72;;;1.38;;
18172;SDS011;9211;48.818;9.312;2022-09-29T15:24:35;5.38;;;1.40;;
18172;SDS011;9211;48.818;9.312;2022-09-29T15:27:20;3.55;;;1.40;;
18172;SDS011;9211;48.818;9.312;2022-09-29T15:29:47;3.40;;;1.37;;
18172;SDS011;9211;48.818;9.312;2022-09-29T15:32:20;4.20;;;1.30;;
18172;SDS011;9211;48.818;9.312;2022-09-29T15:34:50;3.20;;;1.40;;
18172;SDS011;9211;48.818;9.312;2022-09-29T15:37:17;3.50;;;1.30;;
18172;SDS011;9211;48.818;9.312;2022-09-29T15:39:47;4.50;;;1.30;;
18172;SDS011;9211;48.818;9.312;2022-09-29T15:42:17;3.95;;;1.30;;
18172;SDS011;9211;48.818;9.312;2022-09-29T15:44:48;3.78;;;1.95;;
18172;SDS011;9211;48.818;9.312;2022-09-29T15:47:25;3.50;;;1.48;;
18172;SDS011;9211;48.818;9.312;2022-09-29T15:49:53;3.92;;;1.60;;
18172;SDS011;9211;48.818;9.312;2022-09-29T15:52:21;6.07;;;2.85;;
18172;SDS011;9211;48.818;9.312;2022-09-29T15:54:56;4.13;;;2.28;;
18172;SDS011;9211;48.818;9.312;2022-09-29T15:57:28;3.47;;;1.20;;
18172;SDS011;9211;48.818;9.312;2022-09-29T16:03:14;2.88;;;1.42;;
18172;SDS011;9211;48.818;9.312;2022-09-29T16:05:51;3.97;;;1.48;;